createdAt,value
2023-01-12T00:02:21.508Z,6.90
2023-01-12T00:04:51.039Z,6.90
2023-01-12T00:07:18.212Z,6.90
2023-01-12T00:09:47.645Z,6.90
2023-01-12T00:12:14.610Z,6.90
2023-01-12T00:14:43.882Z,6.90
2023-01-12T00:17:14.225Z,6.90
2023-01-12T00:19:41.123Z,6.90
2023-01-12T00:22:11.442Z,6.90
2023-01-12T00:24:40.899Z,6.90
2023-01-12T00:27:15.113Z,6.90
2023-01-12T00:29:42.306Z,6.90
2023-01-12T00:32:13.448Z,6.90
2023-01-12T00:34:42.638Z,6.90
2023-01-12T00:37:10.037Z,6.90
2023-01-12T00:39:40.788Z,6.80
2023-01-12T00:42:31.434Z,6.90
2023-01-12T00:45:16.916Z,6.80
2023-01-12T00:47:43.780Z,6.80
2023-01-12T00:50:10.812Z,6.80
2023-01-12T00:52:37.892Z,6.80
2023-01-12T00:55:05.241Z,6.80
2023-01-12T00:57:32.150Z,6.80
2023-01-12T01:00:00.058Z,6.80
2023-01-12T01:02:29.799Z,6.80
2023-01-12T01:05:02.315Z,6.80
2023-01-12T01:07:29.253Z,6.80
2023-01-12T01:09:56.093Z,6.80
2023-01-12T01:12:25.319Z,6.80
2023-01-12T01:14:53.453Z,6.80
2023-01-12T01:17:20.473Z,6.80
2023-01-12T01:19:49.466Z,6.80
2023-01-12T01:22:18.849Z,6.80
2023-01-12T01:24:47.054Z,6.80
2023-01-12T01:27:14.516Z,6.80
2023-01-12T01:29:44.283Z,6.80
2023-01-12T01:32:11.127Z,6.80
2023-01-12T01:34:37.989Z,6.80
2023-01-12T01:37:07.226Z,6.80
2023-01-12T01:39:34.045Z,6.80
2023-01-12T01:42:01.198Z,6.80
2023-01-12T01:44:33.247Z,6.90
2023-01-12T01:47:01.646Z,6.90
2023-01-12T01:49:33.819Z,6.90
2023-01-12T01:52:07.239Z,6.90
2023-01-12T01:54:48.779Z,6.90
2023-01-12T01:57:18.103Z,6.90
2023-01-12T01:59:53.807Z,6.90
2023-01-12T02:02:25.490Z,7.00
2023-01-12T02:04:55.159Z,7.00
2023-01-12T02:07:22.028Z,7.00
2023-01-12T02:09:48.961Z,7.00
2023-01-12T02:12:34.331Z,7.00
2023-01-12T02:15:19.907Z,7.00
2023-01-12T02:18:04.755Z,7.00
2023-01-12T02:21:02.664Z,7.00
2023-01-12T02:23:59.252Z,7.00
2023-01-12T02:26:29.806Z,7.10
2023-01-12T02:29:23.973Z,7.10
2023-01-12T02:32:12.664Z,7.10
2023-01-12T02:34:58.270Z,7.10
2023-01-12T02:37:28.223Z,7.10
2023-01-12T02:40:00.575Z,7.10
2023-01-12T02:42:42.258Z,7.10
2023-01-12T02:45:17.828Z,7.10
2023-01-12T02:47:54.183Z,7.10
2023-01-12T02:50:50.127Z,7.10
2023-01-12T02:53:32.323Z,7.10
2023-01-12T02:56:08.851Z,7.10
2023-01-12T02:58:40.548Z,7.10
2023-01-12T03:01:09.570Z,7.00
2023-01-12T03:03:39.789Z,7.10
2023-01-12T03:06:07.729Z,7.00
2023-01-12T03:08:39.244Z,7.00
2023-01-12T03:11:16.450Z,7.00
2023-01-12T03:13:55.444Z,7.10
2023-01-12T03:16:26.375Z,7.10
2023-01-12T03:19:06.100Z,7.10
2023-01-12T03:21:37.879Z,7.10
2023-01-12T03:24:07.178Z,7.10
2023-01-12T03:26:37.714Z,7.10
2023-01-12T03:29:17.284Z,7.10
2023-01-12T03:31:46.972Z,7.10
2023-01-12T03:34:14.197Z,7.10
2023-01-12T03:37:19.144Z,7.10
2023-01-12T03:39:51.090Z,7.10
2023-01-12T03:42:28.231Z,7.10
2023-01-12T03:45:25.974Z,7.10
2023-01-12T03:48:03.620Z,7.10
2023-01-12T03:51:01.605Z,7.10
2023-01-12T03:53:31.044Z,7.10
2023-01-12T03:56:02.460Z,7.10
2023-01-12T03:58:34.855Z,7.20
2023-01-12T04:01:05.783Z,7.20
2023-01-12T04:03:39.571Z,7.20
2023-01-12T04:06:09.567Z,7.20
2023-01-12T04:08:36.720Z,7.20
2023-01-12T04:11:26.156Z,7.20
2023-01-12T04:13:53.575Z,7.20
2023-01-12T04:16:20.581Z,7.20
2023-01-12T04:18:49.981Z,7.20
2023-01-12T04:21:35.471Z,7.20
2023-01-12T04:24:02.446Z,7.20
2023-01-12T04:26:31.530Z,7.30
2023-01-12T04:29:02.646Z,7.30
2023-01-12T04:31:29.542Z,7.30
2023-01-12T04:33:58.610Z,7.30
2023-01-12T04:36:25.626Z,7.30
2023-01-12T04:38:52.471Z,7.30
2023-01-12T04:41:19.348Z,7.30
2023-01-12T04:43:46.789Z,7.30
2023-01-12T04:46:14.900Z,7.40
2023-01-12T04:48:45.756Z,7.40
2023-01-12T04:51:12.929Z,7.40
2023-01-12T04:53:42.012Z,7.40
2023-01-12T04:56:09.486Z,7.40
2023-01-12T04:58:38.569Z,7.40
2023-01-12T05:01:14.368Z,7.50
2023-01-12T05:03:42.474Z,7.40
2023-01-12T05:06:12.963Z,7.50
2023-01-12T05:08:58.511Z,7.50
2023-01-12T05:11:29.693Z,7.50
2023-01-12T05:13:57.354Z,7.50
2023-01-12T05:16:25.304Z,7.50
2023-01-12T05:18:53.352Z,7.50
2023-01-12T05:21:24.311Z,7.50
2023-01-12T05:23:54.372Z,7.60
2023-01-12T05:26:21.464Z,7.60
2023-01-12T05:28:51.794Z,7.60
2023-01-12T05:31:19.658Z,7.60
2023-01-12T05:33:46.702Z,7.60
2023-01-12T05:36:15.661Z,7.60
2023-01-12T05:38:42.881Z,7.60
2023-01-12T05:41:14.365Z,7.60
2023-01-12T05:43:50.677Z,7.70
2023-01-12T05:46:23.179Z,7.60
2023-01-12T05:48:51.512Z,7.60
2023-01-12T05:51:19.272Z,7.60
2023-01-12T05:53:46.457Z,7.70
2023-01-12T05:56:20.291Z,7.70
2023-01-12T05:58:58.719Z,7.70
2023-01-12T06:01:26.387Z,7.70
2023-01-12T06:03:55.679Z,7.70
2023-01-12T06:06:27.784Z,7.70
2023-01-12T06:08:54.910Z,7.70
2023-01-12T06:11:42.764Z,7.70
2023-01-12T06:14:10.310Z,7.70
2023-01-12T06:16:42.164Z,7.70
2023-01-12T06:19:12.579Z,7.70
2023-01-12T06:21:42.212Z,7.70
2023-01-12T06:24:09.293Z,7.70
2023-01-12T06:26:38.557Z,7.70
2023-01-12T06:29:07.031Z,7.80
2023-01-12T06:31:34.119Z,7.80
2023-01-12T06:34:03.286Z,7.80
2023-01-12T06:36:30.162Z,7.80
2023-01-12T06:39:01.753Z,7.80
2023-01-12T06:41:47.439Z,7.80
2023-01-12T06:44:16.528Z,7.80
2023-01-12T06:46:43.346Z,7.80
2023-01-12T06:49:10.607Z,7.80
2023-01-12T06:51:37.649Z,7.80
2023-01-12T06:54:08.982Z,7.80
2023-01-12T06:56:35.946Z,7.90
2023-01-12T06:59:02.801Z,7.90
2023-01-12T07:01:29.881Z,7.90
2023-01-12T07:03:59.159Z,7.90
2023-01-12T07:06:26.161Z,7.90
2023-01-12T07:08:53.100Z,7.90
2023-01-12T07:11:54.062Z,7.90
2023-01-12T07:14:23.202Z,7.90
2023-01-12T07:16:50.095Z,7.90
2023-01-12T07:19:17.035Z,7.90
2023-01-12T07:21:46.626Z,7.90
2023-01-12T07:24:13.486Z,7.90
2023-01-12T07:26:40.352Z,8.00
2023-01-12T07:29:11.213Z,8.00
2023-01-12T07:31:38.119Z,8.00
2023-01-12T07:34:07.235Z,8.00
2023-01-12T07:36:34.171Z,8.10
2023-01-12T07:39:01.106Z,8.10
2023-01-12T07:41:46.489Z,8.10
2023-01-12T07:44:13.353Z,8.10
2023-01-12T07:46:42.676Z,8.20
2023-01-12T07:49:09.712Z,8.20
2023-01-12T07:51:36.681Z,8.20
2023-01-12T07:54:03.599Z,8.30
2023-01-12T07:56:30.418Z,8.30
2023-01-12T07:58:57.643Z,8.30
2023-01-12T08:01:26.864Z,8.30
2023-01-12T08:03:54.330Z,8.30
2023-01-12T08:06:21.352Z,8.30
2023-01-12T08:08:48.260Z,8.30
2023-01-12T08:11:15.105Z,8.40
2023-01-12T08:13:42.045Z,8.40
2023-01-12T08:16:18.526Z,8.40
2023-01-12T08:18:52.236Z,8.50
2023-01-12T08:21:25.627Z,8.50
2023-01-12T08:23:59.036Z,8.50
2023-01-12T08:26:36.877Z,8.50
2023-01-12T08:29:12.778Z,8.50
2023-01-12T08:31:40.331Z,8.50
2023-01-12T08:34:08.395Z,8.50
2023-01-12T08:36:39.873Z,8.50
2023-01-12T08:39:07.327Z,8.60
2023-01-12T08:41:34.352Z,8.60
2023-01-12T08:44:10.804Z,8.60
2023-01-12T08:46:54.662Z,8.60
2023-01-12T08:49:24.533Z,8.60
2023-01-12T08:51:51.642Z,8.70
2023-01-12T08:54:20.376Z,8.70
2023-01-12T08:56:47.506Z,8.80
2023-01-12T08:59:19.143Z,8.80
2023-01-12T09:01:46.368Z,8.80
2023-01-12T09:04:15.497Z,8.90
2023-01-12T09:06:46.327Z,8.80
2023-01-12T09:09:19.267Z,8.90
2023-01-12T09:11:49.130Z,8.90
2023-01-12T09:14:17.078Z,8.90
2023-01-12T09:16:44.844Z,8.90
2023-01-12T09:19:11.905Z,8.90
2023-01-12T09:21:41.214Z,9.00
2023-01-12T09:24:08.491Z,9.00
2023-01-12T09:26:44.040Z,9.00
2023-01-12T09:29:12.621Z,9.00
2023-01-12T09:31:42.341Z,9.00
2023-01-12T09:34:12.204Z,9.10
2023-01-12T09:36:40.055Z,9.10
2023-01-12T09:39:26.217Z,9.20
2023-01-12T09:42:15.976Z,9.20
2023-01-12T09:45:08.485Z,9.30
2023-01-12T09:47:40.578Z,9.40
2023-01-12T09:50:22.571Z,9.40
2023-01-12T09:52:59.697Z,9.40
2023-01-12T09:55:38.031Z,9.40
2023-01-12T09:58:16.738Z,9.40
2023-01-12T10:00:48.994Z,9.50
2023-01-12T10:03:28.384Z,9.50
2023-01-12T10:06:00.534Z,9.60
2023-01-12T10:08:44.477Z,9.70
2023-01-12T10:11:40.871Z,9.80
2023-01-12T10:14:25.940Z,9.80
2023-01-12T10:17:07.937Z,9.90
2023-01-12T10:19:47.530Z,10.00
2023-01-12T10:22:36.849Z,9.90
2023-01-12T10:25:41.965Z,9.90
2023-01-12T10:28:33.284Z,10.00
2023-01-12T10:31:01.039Z,9.90
2023-01-12T10:33:32.800Z,9.90
2023-01-12T10:36:02.559Z,10.00
2023-01-12T10:38:53.341Z,10.00
2023-01-12T10:41:26.434Z,10.00
2023-01-12T10:44:15.516Z,9.90
2023-01-12T10:46:42.589Z,9.90
2023-01-12T10:49:23.722Z,9.90
2023-01-12T10:51:57.784Z,9.90
2023-01-12T10:54:26.351Z,9.90
2023-01-12T10:57:04.095Z,9.90
2023-01-12T10:59:33.905Z,9.90
2023-01-12T11:02:14.490Z,9.90
2023-01-12T11:04:52.598Z,9.90
2023-01-12T11:07:22.208Z,9.90
2023-01-12T11:09:49.675Z,9.80
2023-01-12T11:12:40.296Z,9.80
2023-01-12T11:15:10.349Z,9.70
2023-01-12T11:17:50.329Z,9.60
2023-01-12T11:20:49.489Z,9.60
2023-01-12T11:23:27.588Z,9.60
2023-01-12T11:25:55.584Z,9.50
2023-01-12T11:28:30.505Z,9.50
2023-01-12T11:31:19.484Z,9.50
2023-01-12T11:33:55.523Z,9.50
2023-01-12T11:36:30.574Z,9.50
2023-01-12T11:39:07.158Z,9.50
2023-01-12T11:42:03.816Z,9.50
2023-01-12T11:45:07.039Z,9.40
2023-01-12T11:47:41.769Z,9.40
2023-01-12T11:50:27.678Z,9.30
2023-01-12T11:52:59.314Z,9.40
2023-01-12T11:55:50.125Z,9.40
2023-01-12T11:58:23.247Z,9.40
2023-01-12T12:01:22.209Z,9.40
2023-01-12T12:04:04.699Z,9.40
2023-01-12T12:06:56.104Z,9.50
2023-01-12T12:09:35.082Z,9.50
2023-01-12T12:12:32.196Z,9.50
2023-01-12T12:15:04.046Z,9.60
2023-01-12T12:17:52.779Z,9.60
2023-01-12T12:20:42.422Z,9.60
2023-01-12T12:23:37.192Z,9.60
2023-01-12T12:26:14.585Z,9.60
2023-01-12T12:28:53.506Z,9.60
2023-01-12T12:31:53.003Z,9.70
2023-01-12T12:34:30.727Z,9.70
2023-01-12T12:37:50.003Z,9.70
2023-01-12T12:41:06.780Z,9.70
2023-01-12T12:43:56.724Z,9.80
2023-01-12T12:46:32.627Z,9.70
2023-01-12T12:49:16.999Z,9.80
2023-01-12T12:51:45.595Z,9.80
2023-01-12T12:54:17.970Z,9.80
2023-01-12T12:56:46.044Z,9.80
2023-01-12T12:59:33.251Z,9.80
2023-01-12T13:02:02.248Z,9.90
2023-01-12T13:04:44.350Z,9.90
2023-01-12T13:07:21.259Z,9.90
2023-01-12T13:09:49.587Z,9.90
2023-01-12T13:12:41.616Z,9.90
2023-01-12T13:15:24.594Z,9.90
2023-01-12T13:17:53.572Z,9.90
2023-01-12T13:20:25.913Z,9.90
2023-01-12T13:22:53.313Z,10.00
2023-01-12T13:25:20.460Z,9.90
2023-01-12T13:27:47.344Z,9.90
2023-01-12T13:30:38.672Z,9.90
2023-01-12T13:33:14.889Z,10.00
2023-01-12T13:35:44.494Z,10.00
2023-01-12T13:38:32.645Z,10.00
2023-01-12T13:41:03.779Z,10.00
2023-01-12T13:43:37.686Z,10.00
2023-01-12T13:46:14.538Z,10.00
2023-01-12T13:48:46.803Z,10.00
2023-01-12T13:51:16.414Z,10.00
2023-01-12T13:53:43.374Z,10.00
2023-01-12T13:56:20.952Z,10.00
2023-01-12T14:03:04.812Z,10.00
2023-01-12T14:05:59.189Z,10.00
2023-01-12T14:08:30.651Z,10.10
2023-01-12T14:11:08.655Z,10.00
2023-01-12T14:14:39.316Z,10.10
2023-01-12T14:17:36.077Z,10.10
2023-01-12T14:20:03.179Z,10.10
2023-01-12T14:22:30.059Z,10.10
2023-01-12T14:25:15.663Z,10.10
2023-01-12T14:27:53.141Z,10.10
2023-01-12T14:30:22.333Z,10.10
2023-01-12T14:32:50.837Z,10.10
2023-01-12T14:35:24.155Z,10.10
2023-01-12T14:37:56.244Z,10.10
2023-01-12T14:40:23.426Z,10.10
2023-01-12T14:43:09.476Z,10.10
2023-01-12T14:45:59.891Z,10.20
2023-01-12T14:48:32.190Z,10.20
2023-01-12T14:51:24.707Z,10.20
2023-01-12T14:54:05.356Z,10.20
2023-01-12T14:56:46.651Z,10.20
2023-01-12T14:59:16.592Z,10.20
2023-01-12T15:01:44.040Z,10.20
2023-01-12T15:04:25.190Z,10.20
2023-01-12T15:07:05.565Z,10.20
2023-01-12T15:09:36.871Z,10.20
2023-01-12T15:12:28.793Z,10.20
2023-01-12T15:15:52.191Z,10.20
2023-01-12T15:18:37.718Z,10.20
2023-01-12T15:21:23.540Z,10.20
2023-01-12T15:24:09.426Z,10.20
2023-01-12T15:26:38.640Z,10.20
2023-01-12T15:29:05.507Z,10.20
2023-01-12T15:31:37.438Z,10.20
2023-01-12T15:34:05.715Z,10.20
2023-01-12T15:36:32.635Z,10.30
2023-01-12T15:38:59.584Z,10.30
2023-01-12T15:41:48.623Z,10.30
2023-01-12T15:44:17.750Z,10.30
2023-01-12T15:46:45.056Z,10.30
2023-01-12T15:49:15.232Z,10.30
2023-01-12T15:51:50.927Z,10.30
2023-01-12T15:54:19.753Z,10.30
2023-01-12T15:56:48.052Z,10.30
2023-01-12T15:59:15.109Z,10.30
2023-01-12T16:01:45.454Z,10.30
2023-01-12T16:07:07.487Z,10.40
2023-01-12T16:09:34.340Z,10.30
2023-01-12T16:12:01.223Z,10.30
2023-01-12T16:14:30.654Z,10.30
2023-01-12T16:16:57.530Z,10.40
2023-01-12T16:19:24.425Z,10.40
2023-01-12T16:21:55.172Z,10.40
2023-01-12T16:24:26.682Z,10.40
2023-01-12T16:26:54.045Z,10.40
2023-01-12T16:29:24.147Z,10.40
2023-01-12T16:31:51.381Z,10.40
2023-01-12T16:34:22.594Z,10.40
2023-01-12T16:37:47.616Z,10.40
2023-01-12T16:40:14.615Z,10.40
2023-01-12T16:42:41.484Z,10.50
2023-01-12T16:45:09.431Z,10.50
2023-01-12T16:47:36.441Z,10.50
2023-01-12T16:50:03.588Z,10.40
2023-01-12T16:52:30.675Z,10.50
2023-01-12T16:54:57.669Z,10.50
2023-01-12T16:57:27.076Z,10.50
2023-01-12T16:59:54.016Z,10.60
2023-01-12T17:02:21.196Z,10.50
2023-01-12T17:04:52.217Z,10.50
2023-01-12T17:07:21.765Z,10.50
2023-01-12T17:09:48.741Z,10.60
2023-01-12T17:12:18.377Z,10.50
2023-01-12T17:14:45.704Z,10.60
2023-01-12T17:17:12.721Z,10.60
2023-01-12T17:19:42.915Z,10.60
2023-01-12T17:22:12.970Z,10.60
2023-01-12T17:24:40.393Z,10.60
2023-01-12T17:27:09.156Z,10.60
2023-01-12T17:29:36.631Z,10.60
2023-01-12T17:32:06.682Z,10.60
2023-01-12T17:34:38.863Z,10.60
2023-01-12T17:37:09.748Z,10.60
2023-01-12T17:39:40.476Z,10.70
2023-01-12T17:42:25.959Z,10.60
2023-01-12T17:44:55.400Z,10.70
2023-01-12T17:47:23.651Z,10.70
2023-01-12T17:49:50.723Z,10.70
2023-01-12T17:52:20.223Z,10.70
2023-01-12T17:54:47.585Z,10.70
2023-01-12T17:57:17.005Z,10.70
2023-01-12T17:59:46.261Z,10.70
2023-01-12T18:02:14.861Z,10.70
2023-01-12T18:04:42.213Z,10.70
2023-01-12T18:07:09.443Z,10.70
2023-01-12T18:09:38.836Z,10.70
2023-01-12T18:12:31.701Z,10.70
2023-01-12T18:15:01.687Z,10.70
2023-01-12T18:17:31.523Z,10.70
2023-01-12T18:20:01.155Z,10.70
2023-01-12T18:22:28.107Z,10.70
2023-01-12T18:24:54.991Z,10.70
2023-01-12T18:27:22.137Z,10.70
2023-01-12T18:29:51.278Z,10.80
2023-01-12T18:32:20.467Z,10.80
2023-01-12T18:34:47.424Z,10.70
2023-01-12T18:37:14.941Z,10.80
2023-01-12T18:39:44.084Z,10.80
2023-01-12T18:42:32.137Z,10.80
2023-01-12T18:44:59.635Z,10.80
2023-01-12T18:47:45.307Z,10.80
2023-01-12T18:50:30.813Z,10.80
2023-01-12T18:53:18.696Z,10.80
2023-01-12T18:55:52.278Z,10.80
2023-01-12T18:58:19.273Z,10.80
2023-01-12T19:00:46.161Z,10.80
2023-01-12T19:03:13.467Z,10.80
2023-01-12T19:05:58.980Z,10.80
2023-01-12T19:08:48.988Z,10.80
2023-01-12T19:11:16.439Z,10.80
2023-01-12T19:14:02.074Z,10.80
2023-01-12T19:16:48.199Z,10.90
2023-01-12T19:19:15.166Z,10.90
2023-01-12T19:22:00.317Z,10.90
2023-01-12T19:24:45.642Z,10.90
2023-01-12T19:27:32.134Z,10.90
2023-01-12T19:29:59.178Z,10.90
2023-01-12T19:32:26.092Z,10.90
2023-01-12T19:35:02.316Z,10.90
2023-01-12T19:37:33.091Z,10.90
2023-01-12T19:40:04.415Z,10.90
2023-01-12T19:42:52.096Z,10.90
2023-01-12T19:45:19.093Z,10.90
2023-01-12T19:47:46.019Z,10.90
2023-01-12T19:50:18.739Z,10.90
2023-01-12T19:52:45.971Z,10.90
2023-01-12T19:55:16.606Z,10.80
2023-01-12T19:57:46.637Z,10.80
2023-01-12T20:00:18.239Z,10.80
2023-01-12T20:02:45.643Z,10.80
2023-01-12T20:05:17.138Z,10.70
2023-01-12T20:07:44.238Z,10.70
2023-01-12T20:10:11.191Z,10.60
2023-01-12T20:12:38.051Z,10.60
2023-01-12T20:15:05.282Z,10.60
2023-01-12T20:17:35.852Z,10.60
2023-01-12T20:20:08.170Z,10.50
2023-01-12T20:22:38.153Z,10.50
2023-01-12T20:25:09.198Z,10.40
2023-01-12T20:27:37.042Z,10.40
2023-01-12T20:30:07.364Z,10.40
2023-01-12T20:32:41.362Z,10.40
2023-01-12T20:35:30.122Z,10.30
2023-01-12T20:37:57.001Z,10.30
2023-01-12T20:40:23.893Z,10.20
2023-01-12T20:42:50.871Z,10.20
2023-01-12T20:45:20.057Z,10.20
2023-01-12T20:47:47.558Z,10.20
2023-01-12T20:54:26.847Z,10.20
2023-01-12T20:56:53.801Z,10.20
2023-01-12T20:59:20.694Z,10.10
2023-01-12T21:01:49.788Z,10.10
2023-01-12T21:04:19.308Z,10.10
2023-01-12T21:06:48.291Z,10.10
2023-01-12T21:09:15.170Z,10.10
2023-01-12T21:11:42.433Z,10.10
2023-01-12T21:14:09.311Z,10.10
2023-01-12T21:16:36.209Z,10.10
2023-01-12T21:19:03.259Z,10.00
2023-01-12T21:21:30.161Z,10.10
2023-01-12T21:23:57.095Z,10.10
2023-01-12T21:26:23.929Z,10.00
2023-01-12T21:28:50.790Z,10.00
2023-01-12T21:31:17.845Z,10.00
2023-01-12T21:33:44.908Z,10.00
2023-01-12T21:36:14.531Z,10.00
2023-01-12T21:38:41.481Z,10.00
2023-01-12T21:41:10.241Z,10.00
2023-01-12T21:43:37.128Z,10.00
2023-01-12T21:46:10.296Z,10.00
2023-01-12T21:48:39.467Z,10.00
2023-01-12T21:51:10.335Z,10.00
2023-01-12T21:53:39.281Z,10.00
2023-01-12T21:56:06.726Z,10.00
2023-01-12T21:58:36.339Z,10.00
2023-01-12T22:01:14.175Z,10.00
2023-01-12T22:03:41.296Z,10.00
2023-01-12T22:06:13.367Z,10.00
2023-01-12T22:08:41.929Z,10.00
2023-01-12T22:11:11.381Z,9.90
2023-01-12T22:13:39.244Z,9.90
2023-01-12T22:16:10.356Z,9.90
2023-01-12T22:18:38.811Z,9.90
2023-01-12T22:21:11.009Z,9.90
2023-01-12T22:23:38.456Z,9.90
2023-01-12T22:26:11.240Z,9.90
2023-01-12T22:28:41.969Z,9.90
2023-01-12T22:31:11.621Z,9.90
2023-01-12T22:33:38.657Z,9.90
2023-01-12T22:36:08.257Z,9.90
2023-01-12T22:38:35.386Z,9.90
2023-01-12T22:41:09.825Z,9.90
2023-01-12T22:43:44.659Z,9.90
2023-01-12T22:46:16.958Z,9.90
2023-01-12T22:48:44.015Z,9.90
2023-01-12T22:51:10.948Z,9.90
2023-01-12T22:53:37.808Z,9.90
2023-01-12T22:56:05.309Z,9.90
2023-01-12T22:58:32.562Z,9.90
2023-01-12T23:01:05.354Z,9.90
2023-01-12T23:03:32.951Z,9.90
2023-01-12T23:06:00.973Z,9.90
2023-01-12T23:08:27.925Z,9.90
2023-01-12T23:11:06.034Z,9.90
2023-01-12T23:13:33.002Z,9.90
2023-01-12T23:16:04.104Z,9.90
2023-01-12T23:18:32.132Z,9.90
2023-01-12T23:21:03.822Z,9.90
2023-01-12T23:23:33.164Z,9.90
2023-01-12T23:26:05.620Z,9.90
2023-01-12T23:28:36.803Z,9.90
2023-01-12T23:31:13.105Z,9.90
2023-01-12T23:33:43.310Z,9.80
2023-01-12T23:36:15.574Z,9.90
2023-01-12T23:38:43.184Z,9.90
2023-01-12T23:41:18.982Z,9.90
2023-01-12T23:43:50.672Z,9.90
2023-01-12T23:46:24.435Z,9.90
2023-01-12T23:48:53.168Z,9.90
2023-01-12T23:51:22.996Z,9.90
2023-01-12T23:53:53.099Z,9.90
2023-01-12T23:56:20.405Z,9.90
2023-01-12T23:58:47.833Z,9.90
